sensor_id;sensor_type;location;lat;lon;timestamp;pressure;altitude;pressure_sealevel;temperature;humidity
27425;BME280;15244;49.088;11.886;2023-03-31T00:04:11;95289.59;;;12.24;53.20
27425;BME280;15244;49.088;11.886;2023-03-31T00:09:14;95280.25;;;12.22;53.01
27425;BME280;15244;49.088;11.886;2023-03-31T00:14:19;95285.75;;;12.18;52.88
27425;BME280;15244;49.088;11.886;2023-03-31T00:19:21;95277.19;;;12.16;52.69
27425;BME280;15244;49.088;11.886;2023-03-31T00:24:22;95263.13;;;12.14;52.59
27425;BME280;15244;49.088;11.886;2023-03-31T00:29:24;95264.72;;;12.11;52.50
27425;BME280;15244;49.088;11.886;2023-03-31T00:34:26;95265.94;;;12.07;52.79
27425;BME280;15244;49.088;11.886;2023-03-31T00:39:28;95258.16;;;12.02;53.15
27425;BME280;15244;49.088;11.886;2023-03-31T00:44:40;95256.25;;;11.99;52.91
27425;BME280;15244;49.088;11.886;2023-03-31T00:49:59;95250.06;;;11.91;52.91
27425;BME280;15244;49.088;11.886;2023-03-31T00:55:05;95235.25;;;11.85;53.19
27425;BME280;15244;49.088;11.886;2023-03-31T01:00:11;95234.91;;;11.79;53.17
27425;BME280;15244;49.088;11.886;2023-03-31T01:05:19;95227.16;;;11.74;53.53
27425;BME280;15244;49.088;11.886;2023-03-31T01:10:21;95206.50;;;11.73;53.62
27425;BME280;15244;49.088;11.886;2023-03-31T01:15:24;95220.16;;;11.73;53.35
27425;BME280;15244;49.088;11.886;2023-03-31T01:37:39;95166.47;;;11.56;54.00
27425;BME280;15244;49.088;11.886;2023-03-31T01:42:53;95167.25;;;11.56;53.93
27425;BME280;15244;49.088;11.886;2023-03-31T01:48:03;95161.44;;;11.50;54.09
27425;BME280;15244;49.088;11.886;2023-03-31T01:53:35;95172.41;;;11.47;53.71
27425;BME280;15244;49.088;11.886;2023-03-31T01:58:48;95159.91;;;11.46;53.78
27425;BME280;15244;49.088;11.886;2023-03-31T02:04:04;95138.50;;;11.44;54.07
27425;BME280;15244;49.088;11.886;2023-03-31T02:09:11;95138.09;;;11.46;54.09
27425;BME280;15244;49.088;11.886;2023-03-31T02:14:18;95130.66;;;11.46;53.73
27425;BME280;15244;49.088;11.886;2023-03-31T02:19:25;95123.69;;;11.42;53.89
27425;BME280;15244;49.088;11.886;2023-03-31T02:24:29;95120.66;;;11.33;54.05
27425;BME280;15244;49.088;11.886;2023-03-31T02:29:32;95123.03;;;11.27;53.95
27425;BME280;15244;49.088;11.886;2023-03-31T02:34:34;95113.34;;;11.22;54.26
27425;BME280;15244;49.088;11.886;2023-03-31T02:39:37;95111.75;;;11.25;54.46
27425;BME280;15244;49.088;11.886;2023-03-31T02:44:41;95096.09;;;11.29;54.33
27425;BME280;15244;49.088;11.886;2023-03-31T02:49:46;95085.56;;;11.35;54.25
27425;BME280;15244;49.088;11.886;2023-03-31T03:05:40;95080.38;;;11.44;54.52
27425;BME280;15244;49.088;11.886;2023-03-31T03:11:24;95065.56;;;11.45;54.46
27425;BME280;15244;49.088;11.886;2023-03-31T03:16:32;95062.41;;;11.46;54.32
27425;BME280;15244;49.088;11.886;2023-03-31T03:21:37;95050.72;;;11.46;54.55
27425;BME280;15244;49.088;11.886;2023-03-31T03:26:38;95039.00;;;11.49;54.40
27425;BME280;15244;49.088;11.886;2023-03-31T03:31:41;95026.50;;;11.52;54.57
27425;BME280;15244;49.088;11.886;2023-03-31T03:36:43;95012.41;;;11.57;54.29
27425;BME280;15244;49.088;11.886;2023-03-31T03:41:44;95007.69;;;11.61;54.40
27425;BME280;15244;49.088;11.886;2023-03-31T03:46:47;95009.19;;;11.65;54.64
27425;BME280;15244;49.088;11.886;2023-03-31T03:51:48;94990.09;;;11.65;54.60
27425;BME280;15244;49.088;11.886;2023-03-31T03:56:50;94990.47;;;11.67;54.45
27425;BME280;15244;49.088;11.886;2023-03-31T04:01:52;94991.25;;;11.64;54.14
27425;BME280;15244;49.088;11.886;2023-03-31T04:06:53;94990.22;;;11.55;54.46
27425;BME280;15244;49.088;11.886;2023-03-31T04:11:55;94969.16;;;11.52;54.73
27425;BME280;15244;49.088;11.886;2023-03-31T04:16:57;94958.00;;;11.39;54.74
27425;BME280;15244;49.088;11.886;2023-03-31T04:21:58;94955.09;;;11.22;55.12
27425;BME280;15244;49.088;11.886;2023-03-31T04:27:03;94953.50;;;11.21;55.47
27425;BME280;15244;49.088;11.886;2023-03-31T04:32:07;94951.59;;;11.18;55.86
27425;BME280;15244;49.088;11.886;2023-03-31T04:37:09;94935.22;;;11.18;55.96
27425;BME280;15244;49.088;11.886;2023-03-31T04:42:11;94931.34;;;11.19;56.11
27425;BME280;15244;49.088;11.886;2023-03-31T04:47:13;94925.16;;;11.15;56.15
27425;BME280;15244;49.088;11.886;2023-03-31T04:52:14;94914.63;;;11.14;56.43
27425;BME280;15244;49.088;11.886;2023-03-31T04:57:16;94912.03;;;11.03;56.36
27425;BME280;15244;49.088;11.886;2023-03-31T05:02:18;94913.22;;;10.98;56.29
27425;BME280;15244;49.088;11.886;2023-03-31T05:07:25;94889.88;;;10.97;56.26
27425;BME280;15244;49.088;11.886;2023-03-31T05:12:27;94864.94;;;10.99;56.43
27425;BME280;15244;49.088;11.886;2023-03-31T05:17:33;94839.50;;;11.09;56.48
27425;BME280;15244;49.088;11.886;2023-03-31T05:22:36;94824.16;;;11.19;56.52
27425;BME280;15244;49.088;11.886;2023-03-31T05:27:38;94821.34;;;11.26;55.99
27425;BME280;15244;49.088;11.886;2023-03-31T05:32:40;94802.91;;;11.34;56.06
27425;BME280;15244;49.088;11.886;2023-03-31T05:37:42;94806.31;;;11.41;56.41
27425;BME280;15244;49.088;11.886;2023-03-31T05:42:43;94801.19;;;11.47;56.24
27425;BME280;15244;49.088;11.886;2023-03-31T05:47:45;94789.81;;;11.52;56.34
27425;BME280;15244;49.088;11.886;2023-03-31T05:52:47;94782.75;;;11.55;56.30
27425;BME280;15244;49.088;11.886;2023-03-31T05:57:48;94775.72;;;11.54;56.34
27425;BME280;15244;49.088;11.886;2023-03-31T06:02:50;94776.50;;;11.54;55.93
27425;BME280;15244;49.088;11.886;2023-03-31T06:07:52;94762.50;;;11.52;56.03
27425;BME280;15244;49.088;11.886;2023-03-31T06:12:54;94753.13;;;11.53;56.04
27425;BME280;15244;49.088;11.886;2023-03-31T06:17:55;94742.56;;;11.55;55.96
27425;BME280;15244;49.088;11.886;2023-03-31T06:22:57;94728.16;;;11.55;56.21
27425;BME280;15244;49.088;11.886;2023-03-31T06:27:59;94726.50;;;11.61;56.41
27425;BME280;15244;49.088;11.886;2023-03-31T06:33:00;94719.03;;;11.65;56.48
27425;BME280;15244;49.088;11.886;2023-03-31T06:38:02;94714.63;;;11.71;56.44
27425;BME280;15244;49.088;11.886;2023-03-31T06:43:04;94710.66;;;11.76;56.35
27425;BME280;15244;49.088;11.886;2023-03-31T06:48:05;94716.47;;;11.78;56.46
27425;BME280;15244;49.088;11.886;2023-03-31T06:53:07;94709.41;;;11.80;56.44
27425;BME280;15244;49.088;11.886;2023-03-31T06:58:09;94709.75;;;11.82;56.47
27425;BME280;15244;49.088;11.886;2023-03-31T07:03:14;94703.44;;;11.89;56.54
27425;BME280;15244;49.088;11.886;2023-03-31T07:08:20;94699.09;;;11.91;56.56
27425;BME280;15244;49.088;11.886;2023-03-31T07:13:22;94694.03;;;11.90;56.62
27425;BME280;15244;49.088;11.886;2023-03-31T07:18:24;94701.41;;;11.93;56.77
27425;BME280;15244;49.088;11.886;2023-03-31T07:23:26;94706.44;;;11.95;56.65
27425;BME280;15244;49.088;11.886;2023-03-31T07:28:29;94713.88;;;11.94;56.94
27425;BME280;15244;49.088;11.886;2023-03-31T07:33:31;94719.41;;;11.90;56.60
27425;BME280;15244;49.088;11.886;2023-03-31T07:38:32;94719.81;;;11.89;57.11
27425;BME280;15244;49.088;11.886;2023-03-31T07:43:34;94732.72;;;11.88;56.59
27425;BME280;15244;49.088;11.886;2023-03-31T07:48:36;94729.22;;;11.84;56.68
27425;BME280;15244;49.088;11.886;2023-03-31T07:53:37;94713.75;;;11.78;57.27
27425;BME280;15244;49.088;11.886;2023-03-31T07:58:39;94711.97;;;11.67;57.64
27425;BME280;15244;49.088;11.886;2023-03-31T08:03:40;94698.78;;;11.62;58.07
27425;BME280;15244;49.088;11.886;2023-03-31T08:08:42;94694.09;;;11.63;57.99
27425;BME280;15244;49.088;11.886;2023-03-31T08:13:43;94687.50;;;11.60;57.73
27425;BME280;15244;49.088;11.886;2023-03-31T08:18:45;94661.81;;;11.58;58.15
27425;BME280;15244;49.088;11.886;2023-03-31T08:23:47;94661.75;;;11.61;57.94
27425;BME280;15244;49.088;11.886;2023-03-31T08:28:49;94648.09;;;11.61;57.98
27425;BME280;15244;49.088;11.886;2023-03-31T08:33:50;94614.50;;;11.64;58.39
27425;BME280;15244;49.088;11.886;2023-03-31T08:38:52;94573.84;;;11.70;58.24
27425;BME280;15244;49.088;11.886;2023-03-31T08:43:56;94548.63;;;11.82;58.60
27425;BME280;15244;49.088;11.886;2023-03-31T08:48:59;94583.22;;;11.92;58.53
27425;BME280;15244;49.088;11.886;2023-03-31T08:54:12;94613.94;;;11.97;58.30
27425;BME280;15244;49.088;11.886;2023-03-31T08:59:36;94644.13;;;11.89;58.14
27425;BME280;15244;49.088;11.886;2023-03-31T09:16:51;94606.81;;;11.79;58.87
27425;BME280;15244;49.088;11.886;2023-03-31T09:21:54;94600.50;;;11.82;59.12
27425;BME280;15244;49.088;11.886;2023-03-31T09:27:01;94582.53;;;11.85;59.31
27425;BME280;15244;49.088;11.886;2023-03-31T09:32:29;94539.84;;;11.95;59.36
27425;BME280;15244;49.088;11.886;2023-03-31T09:37:31;94526.41;;;12.04;59.08
27425;BME280;15244;49.088;11.886;2023-03-31T09:42:34;94509.78;;;12.14;59.33
27425;BME280;15244;49.088;11.886;2023-03-31T09:47:45;94546.00;;;12.19;59.15
27425;BME280;15244;49.088;11.886;2023-03-31T09:52:51;94523.88;;;12.13;59.35
27425;BME280;15244;49.088;11.886;2023-03-31T09:57:53;94538.34;;;12.10;59.80
27425;BME280;15244;49.088;11.886;2023-03-31T10:02:56;94533.38;;;12.05;59.77
27425;BME280;15244;49.088;11.886;2023-03-31T10:08:17;94500.69;;;12.01;60.33
27425;BME280;15244;49.088;11.886;2023-03-31T10:13:47;94493.88;;;12.09;60.59
27425;BME280;15244;49.088;11.886;2023-03-31T10:18:49;94478.72;;;12.25;60.95
27425;BME280;15244;49.088;11.886;2023-03-31T10:23:52;94474.03;;;12.42;61.04
27425;BME280;15244;49.088;11.886;2023-03-31T10:28:55;94481.13;;;12.55;61.69
27425;BME280;15244;49.088;11.886;2023-03-31T10:33:57;94467.03;;;12.73;61.54
27425;BME280;15244;49.088;11.886;2023-03-31T10:39:05;94474.41;;;12.76;60.27
27425;BME280;15244;49.088;11.886;2023-03-31T10:44:43;94473.22;;;12.94;59.83
27425;BME280;15244;49.088;11.886;2023-03-31T10:49:48;94438.81;;;13.09;59.92
27425;BME280;15244;49.088;11.886;2023-03-31T10:54:54;94453.47;;;13.32;60.00
27425;BME280;15244;49.088;11.886;2023-03-31T11:05:51;94433.84;;;13.50;59.14
27425;BME280;15244;49.088;11.886;2023-03-31T11:11:12;94434.66;;;13.76;58.77
27425;BME280;15244;49.088;11.886;2023-03-31T11:21:29;94412.03;;;14.14;58.03
27425;BME280;15244;49.088;11.886;2023-03-31T11:42:58;94393.91;;;14.42;56.14
27425;BME280;15244;49.088;11.886;2023-03-31T11:48:09;94404.34;;;14.47;55.80
27425;BME280;15244;49.088;11.886;2023-03-31T11:53:22;94403.56;;;14.46;55.89
27425;BME280;15244;49.088;11.886;2023-03-31T11:58:37;94371.63;;;14.52;55.65
27425;BME280;15244;49.088;11.886;2023-03-31T12:04:00;94355.31;;;14.62;55.54
27425;BME280;15244;49.088;11.886;2023-03-31T12:09:16;94343.31;;;14.68;55.40
27425;BME280;15244;49.088;11.886;2023-03-31T12:14:42;94340.00;;;14.73;55.39
27425;BME280;15244;49.088;11.886;2023-03-31T12:19:50;94313.59;;;14.67;54.41
27425;BME280;15244;49.088;11.886;2023-03-31T12:24:54;94296.25;;;14.70;53.55
27425;BME280;15244;49.088;11.886;2023-03-31T12:30:08;94295.19;;;14.89;53.42
27425;BME280;15244;49.088;11.886;2023-03-31T12:41:19;94288.16;;;15.10;51.08
27425;BME280;15244;49.088;11.886;2023-03-31T12:52:01;94284.31;;;15.30;48.10
27425;BME280;15244;49.088;11.886;2023-03-31T13:07:34;94221.84;;;15.84;47.72
27425;BME280;15244;49.088;11.886;2023-03-31T13:12:38;94209.50;;;15.97;46.01
27425;BME280;15244;49.088;11.886;2023-03-31T13:17:41;94207.06;;;16.18;46.96
27425;BME280;15244;49.088;11.886;2023-03-31T13:22:45;94193.97;;;16.31;46.81
27425;BME280;15244;49.088;11.886;2023-03-31T13:27:49;94207.41;;;16.47;46.63
27425;BME280;15244;49.088;11.886;2023-03-31T14:43:33;94269.81;;;12.42;55.66
27425;BME280;15244;49.088;11.886;2023-03-31T14:49:18;94288.41;;;12.64;54.60
27425;BME280;15244;49.088;11.886;2023-03-31T14:54:34;94283.75;;;12.77;53.70
27425;BME280;15244;49.088;11.886;2023-03-31T15:00:06;94281.50;;;13.01;53.51
27425;BME280;15244;49.088;11.886;2023-03-31T15:05:29;94302.03;;;13.22;52.71
27425;BME280;15244;49.088;11.886;2023-03-31T15:11:01;94296.81;;;13.40;52.14
27425;BME280;15244;49.088;11.886;2023-03-31T15:22:24;94274.16;;;13.91;51.09
27425;BME280;15244;49.088;11.886;2023-03-31T15:27:44;94260.63;;;14.09;50.26
27425;BME280;15244;49.088;11.886;2023-03-31T15:33:20;94270.72;;;14.13;49.71
27425;BME280;15244;49.088;11.886;2023-03-31T15:38:37;94268.03;;;14.35;49.77
27425;BME280;15244;49.088;11.886;2023-03-31T15:44:36;94254.84;;;14.42;49.08
27425;BME280;15244;49.088;11.886;2023-03-31T15:50:03;94281.81;;;14.57;48.66
27425;BME280;15244;49.088;11.886;2023-03-31T15:55:40;94249.59;;;14.35;48.13
27425;BME280;15244;49.088;11.886;2023-03-31T16:01:02;94259.09;;;14.21;48.61
27425;BME280;15244;49.088;11.886;2023-03-31T16:11:59;94281.91;;;14.05;48.89
27425;BME280;15244;49.088;11.886;2023-03-31T16:17:33;94291.69;;;13.94;48.48
27425;BME280;15244;49.088;11.886;2023-03-31T16:22:53;94272.50;;;13.81;48.30
27425;BME280;15244;49.088;11.886;2023-03-31T16:28:27;94269.13;;;13.77;48.35
27425;BME280;15244;49.088;11.886;2023-03-31T16:33:54;94278.34;;;13.57;48.16
27425;BME280;15244;49.088;11.886;2023-03-31T16:39:23;94274.59;;;13.51;48.04
27425;BME280;15244;49.088;11.886;2023-03-31T16:44:52;94293.00;;;13.38;47.87
27425;BME280;15244;49.088;11.886;2023-03-31T16:50:22;94283.88;;;13.28;48.11
27425;BME280;15244;49.088;11.886;2023-03-31T16:55:50;94291.56;;;13.33;47.98
27425;BME280;15244;49.088;11.886;2023-03-31T17:01:06;94308.84;;;13.30;47.50
27425;BME280;15244;49.088;11.886;2023-03-31T17:06:35;94307.34;;;13.42;47.63
27425;BME280;15244;49.088;11.886;2023-03-31T17:11:50;94318.53;;;13.48;47.43
27425;BME280;15244;49.088;11.886;2023-03-31T17:17:19;94305.25;;;13.46;46.81
27425;BME280;15244;49.088;11.886;2023-03-31T17:22:35;94309.22;;;13.45;47.37
27425;BME280;15244;49.088;11.886;2023-03-31T17:28:05;94312.91;;;13.38;47.10
27425;BME280;15244;49.088;11.886;2023-03-31T17:33:20;94316.53;;;13.35;47.03
27425;BME280;15244;49.088;11.886;2023-03-31T17:38:49;94320.91;;;13.33;47.06
27425;BME280;15244;49.088;11.886;2023-03-31T17:44:11;94330.16;;;13.22;47.04
27425;BME280;15244;49.088;11.886;2023-03-31T17:49:41;94333.97;;;13.12;47.16
27425;BME280;15244;49.088;11.886;2023-03-31T17:54:58;94316.97;;;13.05;47.01
27425;BME280;15244;49.088;11.886;2023-03-31T18:00:34;94325.28;;;13.01;46.93
27425;BME280;15244;49.088;11.886;2023-03-31T18:05:48;94335.03;;;13.02;46.83
27425;BME280;15244;49.088;11.886;2023-03-31T18:11:17;94328.13;;;12.97;47.00
27425;BME280;15244;49.088;11.886;2023-03-31T18:16:35;94332.06;;;12.96;46.89
27425;BME280;15244;49.088;11.886;2023-03-31T18:22:06;94339.47;;;12.96;47.01
27425;BME280;15244;49.088;11.886;2023-03-31T18:27:26;94341.03;;;12.97;46.86
27425;BME280;15244;49.088;11.886;2023-03-31T18:32:54;94351.63;;;12.95;46.84
27425;BME280;15244;49.088;11.886;2023-03-31T18:38:09;94351.41;;;12.89;47.19
27425;BME280;15244;49.088;11.886;2023-03-31T18:43:38;94351.59;;;12.82;47.16
27425;BME280;15244;49.088;11.886;2023-03-31T18:49:08;94346.28;;;12.75;47.30
27425;BME280;15244;49.088;11.886;2023-03-31T18:54:23;94355.03;;;12.70;47.24
27425;BME280;15244;49.088;11.886;2023-03-31T18:59:52;94353.22;;;12.63;47.71
27425;BME280;15244;49.088;11.886;2023-03-31T19:05:12;94363.78;;;12.48;47.75
27425;BME280;15244;49.088;11.886;2023-03-31T19:10:41;94375.66;;;12.42;47.95
27425;BME280;15244;49.088;11.886;2023-03-31T19:15:56;94373.34;;;12.40;47.94
27425;BME280;15244;49.088;11.886;2023-03-31T19:21:27;94368.66;;;12.41;48.02
27425;BME280;15244;49.088;11.886;2023-03-31T19:26:45;94375.06;;;12.34;47.98
27425;BME280;15244;49.088;11.886;2023-03-31T19:32:14;94374.72;;;12.32;48.19
27425;BME280;15244;49.088;11.886;2023-03-31T19:37:30;94378.38;;;12.25;48.26
27425;BME280;15244;49.088;11.886;2023-03-31T19:42:59;94386.06;;;12.14;48.71
27425;BME280;15244;49.088;11.886;2023-03-31T19:48:17;94393.84;;;12.16;48.71
27425;BME280;15244;49.088;11.886;2023-03-31T19:53:46;94388.59;;;12.05;49.32
27425;BME280;15244;49.088;11.886;2023-03-31T19:59:03;94397.16;;;12.07;49.52
27425;BME280;15244;49.088;11.886;2023-03-31T20:04:32;94393.06;;;11.99;49.87
27425;BME280;15244;49.088;11.886;2023-03-31T20:09:51;94401.50;;;11.88;50.18
27425;BME280;15244;49.088;11.886;2023-03-31T20:15:20;94417.56;;;11.82;50.29
27425;BME280;15244;49.088;11.886;2023-03-31T20:20:36;94437.03;;;11.64;51.17
27425;BME280;15244;49.088;11.886;2023-03-31T20:26:11;94447.16;;;11.47;51.43
27425;BME280;15244;49.088;11.886;2023-03-31T20:31:29;94440.56;;;11.45;51.43
27425;BME280;15244;49.088;11.886;2023-03-31T20:37:00;94448.94;;;11.34;51.48
27425;BME280;15244;49.088;11.886;2023-03-31T20:42:19;94445.31;;;11.21;51.76
27425;BME280;15244;49.088;11.886;2023-03-31T20:47:47;94444.19;;;11.18;51.97
27425;BME280;15244;49.088;11.886;2023-03-31T20:53:02;94439.97;;;11.14;52.14
27425;BME280;15244;49.088;11.886;2023-03-31T20:58:32;94430.38;;;11.05;nan
27425;BME280;15244;49.088;11.886;2023-03-31T21:03:49;94413.38;;;10.98;52.63
27425;BME280;15244;49.088;11.886;2023-03-31T21:09:22;94422.00;;;10.96;52.97
27425;BME280;15244;49.088;11.886;2023-03-31T21:14:37;94413.88;;;10.93;53.20
27425;BME280;15244;49.088;11.886;2023-03-31T21:20:07;94409.94;;;10.94;52.97
27425;BME280;15244;49.088;11.886;2023-03-31T21:25:23;94415.88;;;10.89;53.42
27425;BME280;15244;49.088;11.886;2023-03-31T21:30:55;94410.78;;;10.91;53.29
27425;BME280;15244;49.088;11.886;2023-03-31T21:36:18;94413.47;;;10.94;53.59
27425;BME280;15244;49.088;11.886;2023-03-31T21:41:46;94398.22;;;10.97;53.56
27425;BME280;15244;49.088;11.886;2023-03-31T21:47:01;94383.88;;;10.93;53.72
27425;BME280;15244;49.088;11.886;2023-03-31T21:52:30;94391.34;;;10.89;53.99
27425;BME280;15244;49.088;11.886;2023-03-31T21:57:47;94389.41;;;10.89;53.99
27425;BME280;15244;49.088;11.886;2023-03-31T22:03:16;94406.66;;;10.82;54.60
27425;BME280;15244;49.088;11.886;2023-03-31T22:08:36;94393.09;;;10.79;54.44
27425;BME280;15244;49.088;11.886;2023-03-31T22:14:05;94397.00;;;10.78;54.44
27425;BME280;15244;49.088;11.886;2023-03-31T22:19:20;94405.72;;;10.69;54.71
27425;BME280;15244;49.088;11.886;2023-03-31T22:24:49;94400.50;;;10.55;54.91
27425;BME280;15244;49.088;11.886;2023-03-31T22:30:05;94404.84;;;10.52;54.85
27425;BME280;15244;49.088;11.886;2023-03-31T22:35:34;94413.78;;;10.53;54.61
27425;BME280;15244;49.088;11.886;2023-03-31T22:40:49;94407.63;;;10.49;54.78
27425;BME280;15244;49.088;11.886;2023-03-31T22:46:18;94421.66;;;10.47;54.84
27425;BME280;15244;49.088;11.886;2023-03-31T22:51:33;94422.06;;;10.46;54.71
27425;BME280;15244;49.088;11.886;2023-03-31T22:57:05;94423.25;;;10.45;54.71
27425;BME280;15244;49.088;11.886;2023-03-31T23:02:21;94422.91;;;10.43;54.87
27425;BME280;15244;49.088;11.886;2023-03-31T23:07:50;94410.00;;;10.47;54.90
27425;BME280;15244;49.088;11.886;2023-03-31T23:13:05;94427.47;;;10.49;54.68
27425;BME280;15244;49.088;11.886;2023-03-31T23:18:36;94407.28;;;10.47;54.68
27425;BME280;15244;49.088;11.886;2023-03-31T23:24:01;94416.53;;;10.26;55.07
27425;BME280;15244;49.088;11.886;2023-03-31T23:29:29;94413.63;;;10.13;55.05
27425;BME280;15244;49.088;11.886;2023-03-31T23:34:45;94423.72;;;10.12;54.52
27425;BME280;15244;49.088;11.886;2023-03-31T23:40:17;94416.38;;;10.09;55.08
27425;BME280;15244;49.088;11.886;2023-03-31T23:45:32;94409.50;;;10.01;55.07
27425;BME280;15244;49.088;11.886;2023-03-31T23:51:07;94396.28;;;9.99;55.26
27425;BME280;15244;49.088;11.886;2023-03-31T23:56:22;94396.97;;;10.07;55.49
